createdAt,value
2023-05-19T00:01:52.459Z,101852.41
2023-05-19T00:04:19.692Z,101853.09
2023-05-19T00:06:50.882Z,101854.47
2023-05-19T00:09:17.948Z,101854.16
2023-05-19T00:11:44.780Z,101859.09
2023-05-19T00:14:11.856Z,101858.53
2023-05-19T00:16:39.194Z,101860.31
2023-05-19T00:19:10.035Z,101857.09
2023-05-19T00:21:40.425Z,101854.63
2023-05-19T00:24:07.193Z,101855.19
2023-05-19T00:26:34.358Z,101846.47
2023-05-19T00:29:05.137Z,101846.22
2023-05-19T00:31:33.879Z,101839.50
2023-05-19T00:34:01.040Z,101845.88
2023-05-19T00:36:27.630Z,101836.84
2023-05-19T00:38:56.019Z,101828.31
2023-05-19T00:41:23.112Z,101830.03
2023-05-19T00:43:50.932Z,101833.22
2023-05-19T00:46:18.820Z,101830.03
2023-05-19T00:48:45.581Z,101821.81
2023-05-19T00:51:16.627Z,101831.69
2023-05-19T00:53:48.410Z,101828.53
2023-05-19T00:56:18.865Z,101826.09
2023-05-19T00:58:46.279Z,101825.06
2023-05-19T01:01:14.451Z,101830.16
2023-05-19T01:03:42.891Z,101824.75
2023-05-19T01:06:09.753Z,101826.31
2023-05-19T01:08:38.335Z,101829.38
2023-05-19T01:11:06.741Z,101830.06
2023-05-19T01:13:35.964Z,101831.03
2023-05-19T01:16:16.074Z,101829.91
2023-05-19T01:19:05.467Z,101833.09
2023-05-19T01:22:03.474Z,101836.78
2023-05-19T01:24:50.934Z,101829.25
2023-05-19T01:27:51.085Z,101836.63
2023-05-19T01:30:25.820Z,101828.44
2023-05-19T01:32:59.946Z,101833.38
2023-05-19T01:35:28.344Z,101834.34
2023-05-19T01:37:58.981Z,101832.25
2023-05-19T01:40:27.335Z,101842.41
2023-05-19T01:42:57.747Z,101830.84
2023-05-19T01:45:28.235Z,101834.00
2023-05-19T01:47:59.646Z,101839.19
2023-05-19T01:50:28.026Z,101836.19
2023-05-19T01:52:55.753Z,101845.13
2023-05-19T01:55:23.817Z,101849.31
2023-05-19T01:58:15.550Z,101847.97
2023-05-19T02:00:53.317Z,101860.53
2023-05-19T02:03:35.336Z,101842.03
2023-05-19T02:06:14.793Z,101839.97
2023-05-19T02:08:56.997Z,101843.25
2023-05-19T02:11:37.008Z,101838.88
2023-05-19T02:14:16.045Z,101848.09
2023-05-19T02:16:47.080Z,101840.38
2023-05-19T02:19:25.036Z,101839.69
2023-05-19T02:21:52.146Z,101844.25
2023-05-19T02:24:22.755Z,101833.09
2023-05-19T02:26:51.703Z,101834.38
2023-05-19T02:29:19.565Z,101834.75
2023-05-19T02:31:46.768Z,101832.56
2023-05-19T02:34:13.475Z,101826.31
2023-05-19T02:36:43.198Z,101828.88
2023-05-19T02:39:11.085Z,101828.44
2023-05-19T02:41:38.422Z,101825.59
2023-05-19T02:44:05.297Z,101819.59
2023-05-19T02:46:32.814Z,101820.84
2023-05-19T02:48:59.491Z,101813.78
2023-05-19T02:51:27.597Z,101823.22
2023-05-19T02:53:54.201Z,101815.22
2023-05-19T02:56:21.685Z,101815.69
2023-05-19T02:58:48.429Z,101811.34
2023-05-19T03:01:15.661Z,101813.47
2023-05-19T03:03:42.478Z,101809.53
2023-05-19T03:06:09.297Z,101803.09
2023-05-19T03:08:36.470Z,101806.00
2023-05-19T03:11:03.940Z,101812.09
2023-05-19T03:13:30.704Z,101811.91
2023-05-19T03:15:59.457Z,101811.63
2023-05-19T03:18:26.526Z,101807.75
2023-05-19T03:20:54.117Z,101812.78
2023-05-19T03:23:24.014Z,101806.81
2023-05-19T03:25:50.841Z,101809.91
2023-05-19T03:28:18.037Z,101819.16
2023-05-19T03:30:45.141Z,101807.41
2023-05-19T03:33:18.653Z,101809.91
2023-05-19T03:35:46.118Z,101812.72
2023-05-19T03:38:13.212Z,101818.66
2023-05-19T03:40:47.840Z,101815.69
2023-05-19T03:43:16.056Z,101805.94
2023-05-19T03:45:47.605Z,101804.69
2023-05-19T03:48:33.708Z,101805.06
2023-05-19T03:51:18.925Z,101816.56
2023-05-19T03:53:48.573Z,101820.63
2023-05-19T03:56:16.753Z,101812.97
2023-05-19T03:58:44.319Z,101818.50
2023-05-19T04:01:11.695Z,101815.72
2023-05-19T04:03:38.690Z,101820.97
2023-05-19T04:06:05.441Z,101817.25
2023-05-19T04:08:32.439Z,101817.97
2023-05-19T04:10:59.033Z,101822.16
2023-05-19T04:13:25.956Z,101822.94
2023-05-19T04:15:52.970Z,101828.78
2023-05-19T04:18:19.790Z,101826.84
2023-05-19T04:20:46.414Z,101826.03
2023-05-19T04:23:12.979Z,101824.38
2023-05-19T04:25:41.211Z,101827.97
2023-05-19T04:28:07.863Z,101834.94
2023-05-19T04:30:35.647Z,101831.34
2023-05-19T04:33:05.016Z,101827.94
2023-05-19T04:35:31.874Z,101831.09
2023-05-19T04:38:02.043Z,101824.69
2023-05-19T04:40:31.991Z,101830.97
2023-05-19T04:43:02.355Z,101825.81
2023-05-19T04:45:30.172Z,101828.94
2023-05-19T04:47:59.933Z,101830.44
2023-05-19T04:50:28.570Z,101829.31
2023-05-19T04:52:58.886Z,101828.81
2023-05-19T04:55:26.096Z,101822.50
2023-05-19T04:57:53.250Z,101830.47
2023-05-19T05:00:21.257Z,101841.19
2023-05-19T05:03:07.531Z,101838.63
2023-05-19T05:05:34.860Z,101841.16
2023-05-19T05:08:01.569Z,101846.59
2023-05-19T05:10:32.592Z,101833.22
2023-05-19T05:13:00.980Z,101830.19
2023-05-19T05:15:29.759Z,101829.91
2023-05-19T05:17:59.422Z,101834.56
2023-05-19T05:20:26.524Z,101830.59
2023-05-19T05:22:53.474Z,101830.19
2023-05-19T05:25:21.451Z,101838.66
2023-05-19T05:27:48.851Z,101842.28
2023-05-19T05:30:15.691Z,101839.50
2023-05-19T05:32:42.506Z,101844.53
2023-05-19T05:35:18.204Z,101850.13
2023-05-19T05:37:44.852Z,101848.97
2023-05-19T05:40:12.250Z,101855.94
2023-05-19T05:42:39.483Z,101860.97
2023-05-19T05:45:06.839Z,101869.59
2023-05-19T05:47:33.987Z,101866.75
2023-05-19T05:50:01.241Z,101868.97
2023-05-19T05:52:31.156Z,101861.63
2023-05-19T05:55:00.013Z,101866.28
2023-05-19T05:57:31.067Z,101857.47
2023-05-19T06:00:00.487Z,101866.72
2023-05-19T06:02:28.276Z,101872.06
2023-05-19T06:04:56.996Z,101874.47
2023-05-19T06:07:24.414Z,101880.41
2023-05-19T06:09:51.144Z,101874.06
2023-05-19T06:12:17.980Z,101863.34
2023-05-19T06:14:47.919Z,101873.59
2023-05-19T06:17:38.152Z,101867.56
2023-05-19T06:20:06.126Z,101864.88
2023-05-19T06:22:32.752Z,101860.09
2023-05-19T06:25:00.652Z,101868.59
2023-05-19T06:27:27.844Z,101868.59
2023-05-19T06:29:54.935Z,101874.72
2023-05-19T06:32:22.926Z,101875.22
2023-05-19T06:34:54.062Z,101875.78
2023-05-19T06:37:22.838Z,101868.81
2023-05-19T06:39:53.651Z,101877.88
2023-05-19T06:42:22.562Z,101874.81
2023-05-19T06:45:07.718Z,101882.28
2023-05-19T06:47:37.411Z,101881.81
2023-05-19T06:50:05.608Z,101874.38
2023-05-19T06:52:35.420Z,101870.03
2023-05-19T06:55:02.465Z,101873.81
2023-05-19T06:57:30.535Z,101875.13
2023-05-19T06:59:57.687Z,101884.53
2023-05-19T07:02:24.992Z,101880.63
2023-05-19T07:04:52.993Z,101886.66
2023-05-19T07:07:21.190Z,101885.59
2023-05-19T07:09:48.072Z,101882.22
2023-05-19T07:12:14.879Z,101880.09
2023-05-19T07:14:41.653Z,101871.69
2023-05-19T07:17:08.265Z,101871.06
2023-05-19T07:19:36.523Z,101878.16
2023-05-19T07:22:03.560Z,101874.56
2023-05-19T07:24:30.999Z,101872.50
2023-05-19T07:26:58.146Z,101871.16
2023-05-19T07:29:24.878Z,101872.03
2023-05-19T07:31:57.816Z,101868.72
2023-05-19T07:34:25.039Z,101861.19
2023-05-19T07:36:52.044Z,101871.81
2023-05-19T07:39:19.412Z,101865.91
2023-05-19T07:41:52.533Z,101860.38
2023-05-19T07:44:19.318Z,101853.72
2023-05-19T07:46:45.971Z,101844.59
2023-05-19T07:49:13.099Z,101853.91
2023-05-19T07:51:41.703Z,101845.22
2023-05-19T07:54:08.951Z,101842.50
2023-05-19T07:56:35.706Z,101839.66
2023-05-19T07:59:03.849Z,101835.88
2023-05-19T08:01:32.319Z,101841.19
2023-05-19T08:03:59.021Z,101844.53
2023-05-19T08:06:25.858Z,101840.28
2023-05-19T08:08:54.172Z,101835.28
2023-05-19T08:11:21.508Z,101835.59
2023-05-19T08:13:49.249Z,101839.91
2023-05-19T08:16:16.219Z,101829.03
2023-05-19T08:18:43.048Z,101834.44
2023-05-19T08:21:09.659Z,101836.06
2023-05-19T08:23:37.417Z,101836.94
2023-05-19T08:26:04.448Z,101823.09
2023-05-19T08:28:31.371Z,101831.69
2023-05-19T08:30:58.765Z,101823.34
2023-05-19T08:33:25.651Z,101823.59
2023-05-19T08:35:52.338Z,101810.06
2023-05-19T08:38:18.955Z,101807.06
2023-05-19T08:40:47.501Z,101806.59
2023-05-19T08:43:14.387Z,101787.94
2023-05-19T08:45:44.734Z,101796.41
2023-05-19T08:48:13.369Z,101803.53
2023-05-19T08:50:44.106Z,101798.59
2023-05-19T08:53:32.408Z,101780.41
2023-05-19T08:56:11.207Z,101782.25
2023-05-19T08:58:43.859Z,101790.09
2023-05-19T09:01:14.932Z,101788.31
2023-05-19T09:03:43.519Z,101792.09
2023-05-19T09:06:13.532Z,101788.06
2023-05-19T09:08:41.330Z,101776.66
2023-05-19T09:11:09.664Z,101777.84
2023-05-19T09:13:36.881Z,101768.25
2023-05-19T09:16:04.148Z,101760.22
2023-05-19T09:18:31.436Z,101758.13
2023-05-19T09:21:00.405Z,101763.09
2023-05-19T09:23:29.791Z,101765.84
2023-05-19T09:25:57.340Z,101768.47
2023-05-19T09:28:31.874Z,101777.06
2023-05-19T09:31:05.297Z,101769.06
2023-05-19T09:33:39.410Z,101773.59
2023-05-19T09:36:08.376Z,101780.06
2023-05-19T09:38:36.459Z,101771.41
2023-05-19T09:41:04.028Z,101771.28
2023-05-19T09:43:33.302Z,101765.78
2023-05-19T09:46:07.082Z,101760.63
2023-05-19T09:48:35.456Z,101763.13
2023-05-19T09:51:03.315Z,101761.72
2023-05-19T09:53:31.200Z,101753.84
2023-05-19T09:55:58.975Z,101754.72
2023-05-19T09:58:29.549Z,101753.91
2023-05-19T10:00:56.916Z,101744.47
2023-05-19T10:03:25.242Z,101743.28
2023-05-19T10:05:53.370Z,101738.16
2023-05-19T10:08:20.166Z,101747.16
2023-05-19T10:10:47.665Z,101738.78
2023-05-19T10:13:14.707Z,101751.72
2023-05-19T10:15:57.469Z,101736.13
2023-05-19T10:18:26.847Z,101737.31
2023-05-19T10:20:54.693Z,101732.81
2023-05-19T10:23:22.253Z,101742.50
2023-05-19T10:25:50.448Z,101726.25
2023-05-19T10:28:21.056Z,101734.00
2023-05-19T10:30:50.892Z,101727.81
2023-05-19T10:33:20.941Z,101732.00
2023-05-19T10:36:08.935Z,101722.03
2023-05-19T10:38:45.972Z,101716.31
2023-05-19T10:41:32.634Z,101712.41
2023-05-19T10:44:13.257Z,101710.25
2023-05-19T10:46:41.053Z,101716.38
2023-05-19T10:49:08.181Z,101719.63
2023-05-19T10:51:36.180Z,101709.16
2023-05-19T10:54:04.000Z,101701.47
2023-05-19T10:56:34.423Z,101702.41
2023-05-19T10:59:04.454Z,101705.31
2023-05-19T11:01:36.028Z,101703.75
2023-05-19T11:04:13.857Z,101701.34
2023-05-19T11:06:41.424Z,101697.75
2023-05-19T11:09:16.467Z,101702.63
2023-05-19T11:11:50.729Z,101706.19
2023-05-19T11:14:22.867Z,101707.97
2023-05-19T11:16:51.710Z,101705.00
2023-05-19T11:19:32.433Z,101701.16
2023-05-19T11:22:08.667Z,101700.88
2023-05-19T11:24:42.168Z,101694.72
2023-05-19T11:27:28.990Z,101696.69
2023-05-19T11:29:57.583Z,101691.63
2023-05-19T11:32:28.219Z,101685.31
2023-05-19T11:34:57.176Z,101688.84
2023-05-19T11:37:23.862Z,101694.28
2023-05-19T11:39:52.040Z,101681.94
2023-05-19T11:42:19.584Z,101678.38
2023-05-19T11:44:48.009Z,101674.72
2023-05-19T11:47:15.977Z,101681.06
2023-05-19T11:49:48.084Z,101672.28
2023-05-19T11:52:15.151Z,101670.00
2023-05-19T11:54:44.434Z,101662.13
2023-05-19T11:57:11.583Z,101681.44
2023-05-19T11:59:40.554Z,101681.69
2023-05-19T12:02:13.841Z,101674.03
2023-05-19T12:04:40.990Z,101676.00
2023-05-19T12:07:08.135Z,101680.22
2023-05-19T12:09:34.812Z,101686.84
2023-05-19T12:12:02.544Z,101677.31
2023-05-19T12:14:31.368Z,101680.63
2023-05-19T12:16:58.206Z,101674.56
2023-05-19T12:19:25.728Z,101680.22
2023-05-19T12:21:53.689Z,101679.13
2023-05-19T12:24:21.475Z,101678.09
2023-05-19T12:26:50.240Z,101672.28
2023-05-19T12:29:17.218Z,101679.78
2023-05-19T12:31:46.518Z,101686.38
2023-05-19T12:34:13.181Z,101675.50
2023-05-19T12:36:41.281Z,101666.69
2023-05-19T12:39:07.899Z,101658.94
2023-05-19T12:41:34.566Z,101667.25
2023-05-19T12:44:01.750Z,101654.53
2023-05-19T12:46:28.969Z,101663.69
2023-05-19T12:49:00.909Z,101652.75
2023-05-19T12:51:27.486Z,101656.00
2023-05-19T12:53:54.326Z,101662.19
2023-05-19T12:56:21.512Z,101661.53
2023-05-19T12:58:53.630Z,101655.16
2023-05-19T13:01:20.354Z,101644.16
2023-05-19T13:03:47.316Z,101647.56
2023-05-19T13:06:13.983Z,101641.97
2023-05-19T13:08:41.187Z,101647.66
2023-05-19T13:11:08.270Z,101653.75
2023-05-19T13:13:53.455Z,101655.19
2023-05-19T13:16:38.886Z,101637.94
2023-05-19T13:19:25.979Z,101647.56
2023-05-19T13:21:52.918Z,101649.28
2023-05-19T13:24:19.516Z,101635.38
2023-05-19T13:26:46.147Z,101637.34
2023-05-19T13:29:13.313Z,101635.09
2023-05-19T13:31:39.961Z,101643.25
2023-05-19T13:34:07.265Z,101642.84
2023-05-19T13:36:34.898Z,101650.94
2023-05-19T13:39:02.032Z,101640.44
2023-05-19T13:41:29.487Z,101642.53
2023-05-19T13:44:01.689Z,101639.72
2023-05-19T13:46:40.645Z,101636.94
2023-05-19T13:49:11.922Z,101633.75
2023-05-19T13:51:42.097Z,101636.19
2023-05-19T13:54:08.786Z,101633.75
2023-05-19T13:56:36.350Z,101636.53
2023-05-19T13:59:03.928Z,101620.78
2023-05-19T14:01:30.573Z,101622.84
2023-05-19T14:03:57.709Z,101612.19
2023-05-19T14:06:24.467Z,101607.50
2023-05-19T14:08:51.076Z,101601.41
2023-05-19T14:11:21.576Z,101605.88
2023-05-19T14:13:51.859Z,101603.69
2023-05-19T14:16:20.752Z,101603.41
2023-05-19T14:18:47.588Z,101598.06
2023-05-19T14:21:15.854Z,101610.16
2023-05-19T14:23:42.456Z,101606.69
2023-05-19T14:26:09.509Z,101594.56
2023-05-19T14:28:36.550Z,101603.69
2023-05-19T14:31:03.825Z,101598.22
2023-05-19T14:33:34.942Z,101608.56
2023-05-19T14:36:03.595Z,101610.34
2023-05-19T14:38:31.864Z,101611.00
2023-05-19T14:40:58.709Z,101606.88
2023-05-19T14:43:25.542Z,101606.56
2023-05-19T14:45:52.330Z,101601.59
2023-05-19T14:48:19.003Z,101596.56
2023-05-19T14:50:48.361Z,101596.50
2023-05-19T14:53:15.117Z,101601.03
2023-05-19T14:55:42.417Z,101594.94
2023-05-19T14:58:23.636Z,101591.22
2023-05-19T15:00:54.003Z,101594.13
2023-05-19T15:03:20.698Z,101595.81
2023-05-19T15:05:47.386Z,101600.69
2023-05-19T15:08:13.999Z,101600.06
2023-05-19T15:10:40.727Z,101598.34
2023-05-19T15:13:07.301Z,101599.41
2023-05-19T15:15:34.026Z,101583.47
2023-05-19T15:18:00.785Z,101590.25
2023-05-19T15:20:29.434Z,101580.31
2023-05-19T15:22:56.321Z,101579.22
2023-05-19T15:25:22.975Z,101578.50
2023-05-19T15:27:49.638Z,101587.19
2023-05-19T15:30:16.599Z,101598.78
2023-05-19T15:32:43.406Z,101583.94
2023-05-19T15:35:10.036Z,101586.81
2023-05-19T15:37:36.626Z,101592.31
2023-05-19T15:40:04.438Z,101579.03
2023-05-19T15:42:31.341Z,101588.72
2023-05-19T15:44:58.293Z,101576.94
2023-05-19T15:47:24.868Z,101582.22
2023-05-19T15:49:51.861Z,101585.59
2023-05-19T15:52:18.552Z,101576.38
2023-05-19T15:54:45.376Z,101582.06
2023-05-19T15:57:13.424Z,101573.84
2023-05-19T15:59:40.039Z,101569.28
2023-05-19T16:02:07.556Z,101573.41
2023-05-19T16:04:34.324Z,101575.28
2023-05-19T16:07:00.954Z,101581.66
2023-05-19T16:09:27.509Z,101559.56
2023-05-19T16:11:54.158Z,101562.44
2023-05-19T16:14:20.785Z,101560.47
2023-05-19T16:16:47.570Z,101564.44
2023-05-19T16:19:14.280Z,101560.09
2023-05-19T16:21:40.853Z,101554.66
2023-05-19T16:24:07.430Z,101554.00
2023-05-19T16:26:34.435Z,101553.28
2023-05-19T16:29:01.087Z,101556.78
2023-05-19T16:31:27.845Z,101559.16
2023-05-19T16:33:54.466Z,101553.00
2023-05-19T16:36:22.710Z,101554.84
2023-05-19T16:38:49.374Z,101547.41
2023-05-19T16:41:16.016Z,101545.81
2023-05-19T16:43:42.901Z,101545.22
2023-05-19T16:46:11.996Z,101548.59
2023-05-19T16:48:38.845Z,101544.31
2023-05-19T16:51:05.447Z,101547.97
2023-05-19T16:53:32.135Z,101549.22
2023-05-19T16:56:01.544Z,101553.41
2023-05-19T16:58:29.599Z,101543.94
2023-05-19T17:00:57.808Z,101552.34
2023-05-19T17:03:24.879Z,101549.28
2023-05-19T17:05:52.402Z,101554.75
2023-05-19T17:08:18.978Z,101548.72
2023-05-19T17:10:48.146Z,101556.44
2023-05-19T17:13:14.734Z,101556.25
2023-05-19T17:15:43.284Z,101558.00
2023-05-19T17:18:11.820Z,101562.66
2023-05-19T17:20:38.422Z,101558.06
2023-05-19T17:23:08.306Z,101549.03
2023-05-19T17:25:34.863Z,101553.81
2023-05-19T17:28:01.917Z,101551.34
2023-05-19T17:30:28.555Z,101554.56
2023-05-19T17:32:57.227Z,101553.44
2023-05-19T17:35:24.060Z,101553.03
2023-05-19T17:37:50.834Z,101559.91
2023-05-19T17:40:17.923Z,101561.34
2023-05-19T17:42:44.497Z,101562.69
2023-05-19T17:45:12.353Z,101560.31
2023-05-19T17:47:39.042Z,101568.78
2023-05-19T17:50:06.341Z,101558.25
2023-05-19T17:52:33.971Z,101559.13
2023-05-19T17:55:00.800Z,101558.13
2023-05-19T17:57:31.967Z,101557.97
2023-05-19T17:59:59.744Z,101562.34
2023-05-19T18:02:27.303Z,101557.66
2023-05-19T18:04:54.349Z,101557.47
2023-05-19T18:07:22.240Z,101561.28
2023-05-19T18:09:51.173Z,101563.63
2023-05-19T18:12:17.782Z,101566.03
2023-05-19T18:14:44.434Z,101561.31
2023-05-19T18:17:11.110Z,101565.75
2023-05-19T18:19:37.947Z,101568.47
2023-05-19T18:22:04.996Z,101565.19
2023-05-19T18:24:31.595Z,101564.34
2023-05-19T18:26:58.389Z,101568.03
2023-05-19T18:29:25.432Z,101578.41
2023-05-19T18:31:52.355Z,101575.84
2023-05-19T18:34:19.038Z,101578.66
2023-05-19T18:36:45.747Z,101576.03
2023-05-19T18:39:12.741Z,101579.09
2023-05-19T18:41:41.319Z,101575.19
2023-05-19T18:44:08.126Z,101570.59
2023-05-19T18:46:34.949Z,101568.66
2023-05-19T18:49:03.609Z,101570.50
2023-05-19T18:51:32.904Z,101577.94
2023-05-19T18:53:59.518Z,101575.63
2023-05-19T18:56:27.561Z,101584.38
2023-05-19T18:58:54.890Z,101578.66
2023-05-19T19:01:22.166Z,101585.50
2023-05-19T19:03:49.282Z,101588.34
2023-05-19T19:06:23.333Z,101589.41
2023-05-19T19:08:50.474Z,101603.09
2023-05-19T19:11:17.176Z,101599.28
2023-05-19T19:13:43.820Z,101600.31
2023-05-19T19:16:11.029Z,101606.97
2023-05-19T19:18:37.709Z,101602.63
2023-05-19T19:21:05.887Z,101598.59
2023-05-19T19:23:33.386Z,101603.19
2023-05-19T19:26:00.326Z,101606.38
2023-05-19T19:28:27.760Z,101607.22
2023-05-19T19:30:54.941Z,101607.63
2023-05-19T19:33:21.601Z,101613.97
2023-05-19T19:35:48.598Z,101614.81
2023-05-19T19:38:15.374Z,101603.78
2023-05-19T19:40:41.997Z,101611.84
2023-05-19T19:43:08.623Z,101621.50
2023-05-19T19:45:36.275Z,101617.97
2023-05-19T19:48:03.239Z,101625.69
2023-05-19T19:50:29.914Z,101622.59
2023-05-19T19:52:56.997Z,101625.31
2023-05-19T19:55:24.036Z,101628.91
2023-05-19T19:57:51.207Z,101628.66
2023-05-19T20:00:18.487Z,101631.25
2023-05-19T20:03:02.696Z,101631.88
2023-05-19T20:05:29.993Z,101640.50
2023-05-19T20:07:56.627Z,101633.56
2023-05-19T20:10:23.216Z,101638.25
2023-05-19T20:12:50.563Z,101640.38
2023-05-19T20:15:17.429Z,101637.31
2023-05-19T20:17:44.177Z,101636.47
2023-05-19T20:20:12.189Z,101644.31
2023-05-19T20:22:39.365Z,101645.78
2023-05-19T20:25:06.541Z,101646.53
2023-05-19T20:27:33.273Z,101664.69
2023-05-19T20:29:59.895Z,101656.59
2023-05-19T20:32:26.640Z,101656.31
2023-05-19T20:34:53.254Z,101658.56
2023-05-19T20:37:21.469Z,101665.44
2023-05-19T20:39:48.111Z,101665.34
2023-05-19T20:42:14.942Z,101663.56
2023-05-19T20:44:42.386Z,101664.56
2023-05-19T20:47:09.440Z,101650.94
2023-05-19T20:49:36.044Z,101656.63
2023-05-19T20:52:03.082Z,101655.59
2023-05-19T20:54:29.721Z,101650.09
2023-05-19T20:56:56.341Z,101651.84
2023-05-19T20:59:22.942Z,101653.53
2023-05-19T21:01:49.638Z,101662.59
2023-05-19T21:04:16.673Z,101654.81
2023-05-19T21:06:43.350Z,101652.84
2023-05-19T21:09:10.735Z,101659.75
2023-05-19T21:11:37.457Z,101659.41
2023-05-19T21:14:04.383Z,101657.91
2023-05-19T21:16:31.518Z,101663.25
2023-05-19T21:18:58.374Z,101663.63
2023-05-19T21:21:25.633Z,101657.06
2023-05-19T21:23:52.735Z,101662.06
2023-05-19T21:26:19.324Z,101660.63
2023-05-19T21:28:46.132Z,101664.56
2023-05-19T21:31:12.899Z,101666.03
2023-05-19T21:33:39.590Z,101660.41
2023-05-19T21:36:06.713Z,101659.34
2023-05-19T21:38:33.305Z,101665.56
2023-05-19T21:41:00.308Z,101668.25
2023-05-19T21:43:27.053Z,101665.31
2023-05-19T21:45:53.657Z,101665.41
2023-05-19T21:48:21.409Z,101662.91
2023-05-19T21:50:54.977Z,101671.53
2023-05-19T21:53:21.585Z,101674.56
2023-05-19T21:55:48.624Z,101668.81
2023-05-19T21:58:15.360Z,101672.16
2023-05-19T22:00:43.766Z,101676.50
2023-05-19T22:03:12.303Z,101675.06
2023-05-19T22:05:39.493Z,101676.66
2023-05-19T22:08:06.130Z,101680.00
2023-05-19T22:10:33.097Z,101675.63
2023-05-19T22:12:59.915Z,101673.94
2023-05-19T22:15:26.639Z,101687.50
2023-05-19T22:17:53.336Z,101673.09
2023-05-19T22:20:19.950Z,101672.66
2023-05-19T22:22:47.057Z,101675.59
2023-05-19T22:25:14.448Z,101675.03
2023-05-19T22:27:41.023Z,101670.41
2023-05-19T22:30:07.984Z,101666.44
2023-05-19T22:32:35.160Z,101657.03
2023-05-19T22:35:02.121Z,101669.91
2023-05-19T22:37:37.685Z,101656.91
2023-05-19T22:40:04.935Z,101663.94
2023-05-19T22:42:31.578Z,101672.50
2023-05-19T22:44:58.229Z,101667.56
2023-05-19T22:47:25.126Z,101667.75
2023-05-19T22:49:52.059Z,101669.97
2023-05-19T22:52:18.714Z,101674.56
2023-05-19T22:54:48.400Z,101673.06
2023-05-19T22:57:15.024Z,101672.28
2023-05-19T22:59:41.896Z,101662.34
2023-05-19T23:02:11.523Z,101659.06
2023-05-19T23:04:38.209Z,101674.16
2023-05-19T23:07:05.384Z,101674.94
2023-05-19T23:09:32.020Z,101678.13
2023-05-19T23:11:58.804Z,101685.84
2023-05-19T23:14:25.972Z,101684.44
2023-05-19T23:16:52.776Z,101687.00
2023-05-19T23:19:20.400Z,101688.00
2023-05-19T23:21:49.214Z,101689.41
2023-05-19T23:24:16.099Z,101687.53
2023-05-19T23:26:44.326Z,101689.97
2023-05-19T23:29:13.722Z,101682.88
2023-05-19T23:31:41.115Z,101691.31
2023-05-19T23:34:07.956Z,101702.19
2023-05-19T23:36:34.578Z,101695.56
2023-05-19T23:39:01.177Z,101695.31
2023-05-19T23:41:27.759Z,101697.91
2023-05-19T23:43:54.785Z,101693.81
2023-05-19T23:46:21.719Z,101694.06
2023-05-19T23:48:48.412Z,101687.66
2023-05-19T23:51:15.000Z,101695.28
2023-05-19T23:53:41.616Z,101691.31
2023-05-19T23:56:08.355Z,101687.38
2023-05-19T23:58:34.993Z,101697.19
